sensor_id;sensor_type;location;lat;lon;timestamp;P1;durP1;ratioP1;P2;durP2;ratioP2
69087;SDS011;56190;43.562;5.036;2023-09-08T00:01:49;5.13;;;4.18;;
69087;SDS011;56190;43.562;5.036;2023-09-08T00:04:14;5.00;;;4.50;;
69087;SDS011;56190;43.562;5.036;2023-09-08T00:06:40;6.28;;;4.68;;
69087;SDS011;56190;43.562;5.036;2023-09-08T00:09:05;6.43;;;4.85;;
69087;SDS011;56190;43.562;5.036;2023-09-08T00:11:30;5.25;;;4.75;;
69087;SDS011;56190;43.562;5.036;2023-09-08T00:13:55;5.07;;;4.57;;
69087;SDS011;56190;43.562;5.036;2023-09-08T00:16:21;5.90;;;4.80;;
69087;SDS011;56190;43.562;5.036;2023-09-08T00:18:46;5.93;;;4.72;;
69087;SDS011;56190;43.562;5.036;2023-09-08T00:21:11;5.32;;;4.82;;
69087;SDS011;56190;43.562;5.036;2023-09-08T00:23:37;5.95;;;4.72;;
69087;SDS011;56190;43.562;5.036;2023-09-08T00:26:02;6.05;;;4.50;;
69087;SDS011;56190;43.562;5.036;2023-09-08T00:28:27;5.10;;;4.57;;
69087;SDS011;56190;43.562;5.036;2023-09-08T00:30:53;5.90;;;4.50;;
69087;SDS011;56190;43.562;5.036;2023-09-08T00:33:18;6.60;;;4.30;;
69087;SDS011;56190;43.562;5.036;2023-09-08T00:35:44;5.32;;;4.82;;
69087;SDS011;56190;43.562;5.036;2023-09-08T00:38:10;5.25;;;4.65;;
69087;SDS011;56190;43.562;5.036;2023-09-08T00:40:35;7.55;;;4.78;;
69087;SDS011;56190;43.562;5.036;2023-09-08T00:43:00;7.45;;;5.13;;
69087;SDS011;56190;43.562;5.036;2023-09-08T00:45:26;6.47;;;4.78;;
69087;SDS011;56190;43.562;5.036;2023-09-08T00:47:54;6.50;;;4.53;;
69087;SDS011;56190;43.562;5.036;2023-09-08T00:50:19;7.47;;;4.80;;
69087;SDS011;56190;43.562;5.036;2023-09-08T00:52:45;5.15;;;4.65;;
69087;SDS011;56190;43.562;5.036;2023-09-08T00:55:10;5.43;;;4.28;;
69087;SDS011;56190;43.562;5.036;2023-09-08T00:57:36;6.32;;;4.50;;
69087;SDS011;56190;43.562;5.036;2023-09-08T01:00:01;4.63;;;4.00;;
69087;SDS011;56190;43.562;5.036;2023-09-08T01:02:29;5.22;;;4.70;;
69087;SDS011;56190;43.562;5.036;2023-09-08T01:04:55;5.32;;;4.55;;
69087;SDS011;56190;43.562;5.036;2023-09-08T01:07:20;6.35;;;4.57;;
69087;SDS011;56190;43.562;5.036;2023-09-08T01:09:46;5.18;;;4.50;;
69087;SDS011;56190;43.562;5.036;2023-09-08T01:12:11;5.15;;;4.22;;
69087;SDS011;56190;43.562;5.036;2023-09-08T01:14:37;6.13;;;4.60;;
69087;SDS011;56190;43.562;5.036;2023-09-08T01:17:02;7.20;;;4.50;;
69087;SDS011;56190;43.562;5.036;2023-09-08T01:19:27;5.85;;;4.82;;
69087;SDS011;56190;43.562;5.036;2023-09-08T01:26:52;7.18;;;4.78;;
69087;SDS011;56190;43.562;5.036;2023-09-08T01:29:18;4.90;;;4.35;;
69087;SDS011;56190;43.562;5.036;2023-09-08T01:31:44;7.68;;;4.32;;
69087;SDS011;56190;43.562;5.036;2023-09-08T01:34:09;5.28;;;4.25;;
69087;SDS011;56190;43.562;5.036;2023-09-08T01:36:35;6.20;;;4.30;;
69087;SDS011;56190;43.562;5.036;2023-09-08T01:39:01;4.60;;;4.20;;
69087;SDS011;56190;43.562;5.036;2023-09-08T01:41:26;5.45;;;4.70;;
69087;SDS011;56190;43.562;5.036;2023-09-08T01:43:51;5.05;;;4.47;;
69087;SDS011;56190;43.562;5.036;2023-09-08T01:46:16;4.60;;;4.20;;
69087;SDS011;56190;43.562;5.036;2023-09-08T01:48:42;5.90;;;4.30;;
69087;SDS011;56190;43.562;5.036;2023-09-08T01:51:07;4.53;;;4.10;;
69087;SDS011;56190;43.562;5.036;2023-09-08T01:53:32;4.65;;;4.15;;
69087;SDS011;56190;43.562;5.036;2023-09-08T01:55:57;5.03;;;4.20;;
69087;SDS011;56190;43.562;5.036;2023-09-08T01:58:23;5.57;;;4.25;;
69087;SDS011;56190;43.562;5.036;2023-09-08T02:00:51;4.63;;;4.22;;
69087;SDS011;56190;43.562;5.036;2023-09-08T02:03:16;5.80;;;4.18;;
69087;SDS011;56190;43.562;5.036;2023-09-08T02:05:41;7.70;;;4.70;;
69087;SDS011;56190;43.562;5.036;2023-09-08T02:08:07;4.50;;;4.10;;
69087;SDS011;56190;43.562;5.036;2023-09-08T02:10:32;5.22;;;4.50;;
69087;SDS011;56190;43.562;5.036;2023-09-08T02:12:57;4.75;;;4.30;;
69087;SDS011;56190;43.562;5.036;2023-09-08T02:15:22;5.70;;;4.38;;
69087;SDS011;56190;43.562;5.036;2023-09-08T02:17:50;4.50;;;4.05;;
69087;SDS011;56190;43.562;5.036;2023-09-08T02:20:15;5.57;;;4.32;;
69087;SDS011;56190;43.562;5.036;2023-09-08T02:22:40;5.25;;;3.97;;
69087;SDS011;56190;43.562;5.036;2023-09-08T02:25:05;6.03;;;4.63;;
69087;SDS011;56190;43.562;5.036;2023-09-08T02:27:31;5.28;;;4.40;;
69087;SDS011;56190;43.562;5.036;2023-09-08T02:29:56;6.10;;;4.43;;
69087;SDS011;56190;43.562;5.036;2023-09-08T02:32:21;5.40;;;4.55;;
69087;SDS011;56190;43.562;5.036;2023-09-08T02:34:47;6.88;;;4.43;;
69087;SDS011;56190;43.562;5.036;2023-09-08T02:37:13;5.07;;;4.32;;
69087;SDS011;56190;43.562;5.036;2023-09-08T02:39:38;6.38;;;4.60;;
69087;SDS011;56190;43.562;5.036;2023-09-08T02:42:04;5.70;;;4.35;;
69087;SDS011;56190;43.562;5.036;2023-09-08T02:44:31;4.95;;;4.38;;
69087;SDS011;56190;43.562;5.036;2023-09-08T02:46:56;7.20;;;4.40;;
69087;SDS011;56190;43.562;5.036;2023-09-08T02:49:22;5.65;;;4.50;;
69087;SDS011;56190;43.562;5.036;2023-09-08T02:51:47;4.82;;;4.32;;
69087;SDS011;56190;43.562;5.036;2023-09-08T02:54:12;5.30;;;4.80;;
69087;SDS011;56190;43.562;5.036;2023-09-08T02:56:37;4.75;;;4.35;;
69087;SDS011;56190;43.562;5.036;2023-09-08T02:59:03;7.80;;;4.65;;
69087;SDS011;56190;43.562;5.036;2023-09-08T03:01:28;6.10;;;4.20;;
69087;SDS011;56190;43.562;5.036;2023-09-08T03:03:54;5.93;;;4.25;;
69087;SDS011;56190;43.562;5.036;2023-09-08T03:06:19;5.57;;;4.53;;
69087;SDS011;56190;43.562;5.036;2023-09-08T03:08:45;6.72;;;4.38;;
69087;SDS011;56190;43.562;5.036;2023-09-08T03:11:11;5.53;;;4.10;;
69087;SDS011;56190;43.562;5.036;2023-09-08T03:13:36;5.30;;;4.32;;
69087;SDS011;56190;43.562;5.036;2023-09-08T03:16:02;4.45;;;4.05;;
69087;SDS011;56190;43.562;5.036;2023-09-08T03:18:28;6.82;;;4.18;;
69087;SDS011;56190;43.562;5.036;2023-09-08T03:20:53;6.80;;;4.32;;
69087;SDS011;56190;43.562;5.036;2023-09-08T03:23:18;4.72;;;4.32;;
69087;SDS011;56190;43.562;5.036;2023-09-08T03:25:43;4.68;;;4.18;;
69087;SDS011;56190;43.562;5.036;2023-09-08T03:28:09;5.05;;;4.22;;
69087;SDS011;56190;43.562;5.036;2023-09-08T03:30:34;6.07;;;3.97;;
69087;SDS011;56190;43.562;5.036;2023-09-08T03:32:59;5.93;;;4.10;;
69087;SDS011;56190;43.562;5.036;2023-09-08T03:35:24;4.10;;;3.65;;
69087;SDS011;56190;43.562;5.036;2023-09-08T03:37:50;5.65;;;4.25;;
69087;SDS011;56190;43.562;5.036;2023-09-08T03:40:15;5.25;;;4.07;;
69087;SDS011;56190;43.562;5.036;2023-09-08T03:42:40;4.57;;;4.05;;
69087;SDS011;56190;43.562;5.036;2023-09-08T03:45:07;5.57;;;4.32;;
69087;SDS011;56190;43.562;5.036;2023-09-08T03:47:32;4.53;;;4.13;;
69087;SDS011;56190;43.562;5.036;2023-09-08T03:49:57;4.82;;;4.28;;
69087;SDS011;56190;43.562;5.036;2023-09-08T03:52:23;6.13;;;4.35;;
69087;SDS011;56190;43.562;5.036;2023-09-08T03:54:48;4.65;;;4.13;;
69087;SDS011;56190;43.562;5.036;2023-09-08T03:57:13;4.82;;;4.00;;
69087;SDS011;56190;43.562;5.036;2023-09-08T03:59:38;4.80;;;4.20;;
69087;SDS011;56190;43.562;5.036;2023-09-08T04:02:04;4.40;;;4.00;;
69087;SDS011;56190;43.562;5.036;2023-09-08T04:04:29;4.72;;;4.32;;
69087;SDS011;56190;43.562;5.036;2023-09-08T04:06:54;7.05;;;4.30;;
69087;SDS011;56190;43.562;5.036;2023-09-08T04:09:19;5.07;;;4.60;;
69087;SDS011;56190;43.562;5.036;2023-09-08T04:11:45;4.70;;;4.30;;
69087;SDS011;56190;43.562;5.036;2023-09-08T04:14:10;4.95;;;4.50;;
69087;SDS011;56190;43.562;5.036;2023-09-08T04:16:35;4.78;;;4.30;;
69087;SDS011;56190;43.562;5.036;2023-09-08T04:19:00;5.22;;;4.72;;
69087;SDS011;56190;43.562;5.036;2023-09-08T04:21:26;5.40;;;4.90;;
69087;SDS011;56190;43.562;5.036;2023-09-08T04:23:51;4.70;;;4.22;;
69087;SDS011;56190;43.562;5.036;2023-09-08T04:26:17;5.53;;;4.63;;
69087;SDS011;56190;43.562;5.036;2023-09-08T04:28:42;7.32;;;5.03;;
69087;SDS011;56190;43.562;5.036;2023-09-08T04:31:07;5.65;;;4.65;;
69087;SDS011;56190;43.562;5.036;2023-09-08T04:33:32;9.25;;;4.68;;
69087;SDS011;56190;43.562;5.036;2023-09-08T04:35:58;5.85;;;4.97;;
69087;SDS011;56190;43.562;5.036;2023-09-08T04:38:23;5.70;;;4.95;;
69087;SDS011;56190;43.562;5.036;2023-09-08T04:40:48;8.20;;;4.88;;
69087;SDS011;56190;43.562;5.036;2023-09-08T04:43:13;5.30;;;4.88;;
69087;SDS011;56190;43.562;5.036;2023-09-08T04:45:39;5.55;;;5.05;;
69087;SDS011;56190;43.562;5.036;2023-09-08T04:48:04;6.95;;;5.43;;
69087;SDS011;56190;43.562;5.036;2023-09-08T04:50:30;7.22;;;5.28;;
69087;SDS011;56190;43.562;5.036;2023-09-08T04:52:55;5.43;;;4.93;;
69087;SDS011;56190;43.562;5.036;2023-09-08T04:55:20;5.88;;;4.72;;
69087;SDS011;56190;43.562;5.036;2023-09-08T04:57:45;7.18;;;4.90;;
69087;SDS011;56190;43.562;5.036;2023-09-08T05:00:11;7.28;;;5.10;;
69087;SDS011;56190;43.562;5.036;2023-09-08T05:02:36;6.47;;;5.13;;
69087;SDS011;56190;43.562;5.036;2023-09-08T05:05:02;7.15;;;4.97;;
69087;SDS011;56190;43.562;5.036;2023-09-08T05:07:27;6.57;;;5.07;;
69087;SDS011;56190;43.562;5.036;2023-09-08T05:09:52;7.25;;;5.20;;
69087;SDS011;56190;43.562;5.036;2023-09-08T05:12:18;5.53;;;5.00;;
69087;SDS011;56190;43.562;5.036;2023-09-08T05:14:43;6.30;;;5.70;;
69087;SDS011;56190;43.562;5.036;2023-09-08T05:17:08;7.85;;;5.30;;
69087;SDS011;56190;43.562;5.036;2023-09-08T05:19:33;6.28;;;5.00;;
69087;SDS011;56190;43.562;5.036;2023-09-08T05:21:59;6.00;;;4.75;;
69087;SDS011;56190;43.562;5.036;2023-09-08T05:24:24;5.10;;;4.60;;
69087;SDS011;56190;43.562;5.036;2023-09-08T05:26:51;5.88;;;5.10;;
69087;SDS011;56190;43.562;5.036;2023-09-08T05:29:16;6.68;;;5.13;;
69087;SDS011;56190;43.562;5.036;2023-09-08T05:31:42;8.50;;;5.22;;
69087;SDS011;56190;43.562;5.036;2023-09-08T05:34:07;7.35;;;5.20;;
69087;SDS011;56190;43.562;5.036;2023-09-08T05:36:32;7.50;;;4.97;;
69087;SDS011;56190;43.562;5.036;2023-09-08T05:39:00;6.25;;;5.25;;
69087;SDS011;56190;43.562;5.036;2023-09-08T05:41:26;6.38;;;5.22;;
69087;SDS011;56190;43.562;5.036;2023-09-08T05:43:52;9.15;;;5.25;;
69087;SDS011;56190;43.562;5.036;2023-09-08T05:46:17;8.38;;;5.15;;
69087;SDS011;56190;43.562;5.036;2023-09-08T05:48:43;5.55;;;4.88;;
69087;SDS011;56190;43.562;5.036;2023-09-08T05:51:08;5.35;;;4.85;;
69087;SDS011;56190;43.562;5.036;2023-09-08T05:53:34;5.30;;;4.80;;
69087;SDS011;56190;43.562;5.036;2023-09-08T05:56:00;5.95;;;5.35;;
69087;SDS011;56190;43.562;5.036;2023-09-08T05:58:26;5.68;;;5.00;;
69087;SDS011;56190;43.562;5.036;2023-09-08T06:00:52;9.23;;;4.95;;
69087;SDS011;56190;43.562;5.036;2023-09-08T06:03:18;8.35;;;5.30;;
69087;SDS011;56190;43.562;5.036;2023-09-08T06:05:43;5.35;;;4.53;;
69087;SDS011;56190;43.562;5.036;2023-09-08T06:08:09;7.97;;;4.93;;
69087;SDS011;56190;43.562;5.036;2023-09-08T06:10:34;6.65;;;5.28;;
69087;SDS011;56190;43.562;5.036;2023-09-08T06:13:00;6.70;;;5.30;;
69087;SDS011;56190;43.562;5.036;2023-09-08T06:15:26;6.30;;;4.88;;
69087;SDS011;56190;43.562;5.036;2023-09-08T06:17:51;5.22;;;4.68;;
69087;SDS011;56190;43.562;5.036;2023-09-08T06:20:17;6.15;;;4.80;;
69087;SDS011;56190;43.562;5.036;2023-09-08T06:22:42;6.18;;;4.78;;
69087;SDS011;56190;43.562;5.036;2023-09-08T06:25:07;5.20;;;4.70;;
69087;SDS011;56190;43.562;5.036;2023-09-08T06:27:33;9.23;;;5.28;;
69087;SDS011;56190;43.562;5.036;2023-09-08T06:29:58;7.30;;;4.85;;
69087;SDS011;56190;43.562;5.036;2023-09-08T06:32:23;5.47;;;4.53;;
69087;SDS011;56190;43.562;5.036;2023-09-08T06:34:48;6.00;;;4.65;;
69087;SDS011;56190;43.562;5.036;2023-09-08T06:37:14;6.53;;;4.38;;
69087;SDS011;56190;43.562;5.036;2023-09-08T06:39:39;6.57;;;4.65;;
69087;SDS011;56190;43.562;5.036;2023-09-08T06:42:04;5.55;;;4.40;;
69087;SDS011;56190;43.562;5.036;2023-09-08T06:44:30;7.68;;;5.32;;
69087;SDS011;56190;43.562;5.036;2023-09-08T06:46:55;7.38;;;4.78;;
69087;SDS011;56190;43.562;5.036;2023-09-08T06:49:20;8.38;;;4.95;;
69087;SDS011;56190;43.562;5.036;2023-09-08T06:51:46;6.43;;;4.85;;
69087;SDS011;56190;43.562;5.036;2023-09-08T06:54:13;9.15;;;5.40;;
69087;SDS011;56190;43.562;5.036;2023-09-08T06:56:38;9.65;;;5.70;;
69087;SDS011;56190;43.562;5.036;2023-09-08T06:59:04;11.02;;;5.15;;
69087;SDS011;56190;43.562;5.036;2023-09-08T07:01:29;11.00;;;5.95;;
69087;SDS011;56190;43.562;5.036;2023-09-08T07:03:54;7.75;;;4.90;;
69087;SDS011;56190;43.562;5.036;2023-09-08T07:06:20;8.35;;;5.22;;
69087;SDS011;56190;43.562;5.036;2023-09-08T07:08:47;10.95;;;4.95;;
69087;SDS011;56190;43.562;5.036;2023-09-08T07:11:14;11.48;;;5.30;;
69087;SDS011;56190;43.562;5.036;2023-09-08T07:13:39;6.97;;;4.75;;
69087;SDS011;56190;43.562;5.036;2023-09-08T07:16:05;10.63;;;4.95;;
69087;SDS011;56190;43.562;5.036;2023-09-08T07:18:30;6.28;;;4.72;;
69087;SDS011;56190;43.562;5.036;2023-09-08T07:20:59;5.50;;;4.50;;
69087;SDS011;56190;43.562;5.036;2023-09-08T07:23:25;7.32;;;5.18;;
69087;SDS011;56190;43.562;5.036;2023-09-08T07:25:50;6.88;;;4.63;;
69087;SDS011;56190;43.562;5.036;2023-09-08T07:28:16;6.72;;;5.30;;
69087;SDS011;56190;43.562;5.036;2023-09-08T07:30:41;6.20;;;4.75;;
69087;SDS011;56190;43.562;5.036;2023-09-08T07:33:06;8.07;;;4.40;;
69087;SDS011;56190;43.562;5.036;2023-09-08T07:35:32;8.85;;;5.00;;
69087;SDS011;56190;43.562;5.036;2023-09-08T07:37:57;10.30;;;5.60;;
69087;SDS011;56190;43.562;5.036;2023-09-08T07:40:22;8.15;;;4.88;;
69087;SDS011;56190;43.562;5.036;2023-09-08T07:42:48;9.57;;;4.47;;
69087;SDS011;56190;43.562;5.036;2023-09-08T07:45:13;5.20;;;4.70;;
69087;SDS011;56190;43.562;5.036;2023-09-08T07:47:38;5.38;;;4.70;;
69087;SDS011;56190;43.562;5.036;2023-09-08T07:53:01;7.88;;;4.80;;
69087;SDS011;56190;43.562;5.036;2023-09-08T07:55:26;5.47;;;3.92;;
69087;SDS011;56190;43.562;5.036;2023-09-08T07:57:55;7.45;;;4.30;;
69087;SDS011;56190;43.562;5.036;2023-09-08T08:00:20;6.10;;;4.10;;
69087;SDS011;56190;43.562;5.036;2023-09-08T08:02:47;5.25;;;4.28;;
69087;SDS011;56190;43.562;5.036;2023-09-08T08:05:13;7.50;;;5.05;;
69087;SDS011;56190;43.562;5.036;2023-09-08T08:07:38;5.65;;;4.50;;
69087;SDS011;56190;43.562;5.036;2023-09-08T08:10:04;5.40;;;4.07;;
69087;SDS011;56190;43.562;5.036;2023-09-08T08:12:30;5.57;;;3.85;;
69087;SDS011;56190;43.562;5.036;2023-09-08T08:14:55;5.72;;;3.83;;
69087;SDS011;56190;43.562;5.036;2023-09-08T08:17:20;4.68;;;3.67;;
69087;SDS011;56190;43.562;5.036;2023-09-08T08:19:46;5.43;;;4.05;;
69087;SDS011;56190;43.562;5.036;2023-09-08T08:22:12;6.63;;;3.85;;
69087;SDS011;56190;43.562;5.036;2023-09-08T08:24:37;6.47;;;4.00;;
69087;SDS011;56190;43.562;5.036;2023-09-08T08:27:02;5.47;;;4.25;;
69087;SDS011;56190;43.562;5.036;2023-09-08T08:29:28;7.03;;;4.10;;
69087;SDS011;56190;43.562;5.036;2023-09-08T08:31:53;7.00;;;4.15;;
69087;SDS011;56190;43.562;5.036;2023-09-08T08:34:18;4.50;;;4.10;;
69087;SDS011;56190;43.562;5.036;2023-09-08T08:36:44;7.53;;;4.20;;
69087;SDS011;56190;43.562;5.036;2023-09-08T08:39:09;6.68;;;4.10;;
69087;SDS011;56190;43.562;5.036;2023-09-08T08:41:34;6.82;;;4.00;;
69087;SDS011;56190;43.562;5.036;2023-09-08T08:44:03;8.68;;;3.97;;
69087;SDS011;56190;43.562;5.036;2023-09-08T08:46:28;4.25;;;3.85;;
69087;SDS011;56190;43.562;5.036;2023-09-08T08:48:54;6.10;;;3.97;;
69087;SDS011;56190;43.562;5.036;2023-09-08T08:51:20;4.78;;;4.25;;
69087;SDS011;56190;43.562;5.036;2023-09-08T08:53:47;5.65;;;3.80;;
69087;SDS011;56190;43.562;5.036;2023-09-08T08:56:13;6.10;;;3.97;;
69087;SDS011;56190;43.562;5.036;2023-09-08T08:58:39;4.97;;;3.53;;
69087;SDS011;56190;43.562;5.036;2023-09-08T09:01:04;8.10;;;3.78;;
69087;SDS011;56190;43.562;5.036;2023-09-08T09:03:30;5.07;;;3.50;;
69087;SDS011;56190;43.562;5.036;2023-09-08T09:05:56;4.85;;;4.07;;
69087;SDS011;56190;43.562;5.036;2023-09-08T09:08:21;5.88;;;4.65;;
69087;SDS011;56190;43.562;5.036;2023-09-08T09:10:48;6.18;;;4.47;;
69087;SDS011;56190;43.562;5.036;2023-09-08T09:13:13;8.73;;;4.63;;
69087;SDS011;56190;43.562;5.036;2023-09-08T09:15:39;7.30;;;4.18;;
69087;SDS011;56190;43.562;5.036;2023-09-08T09:18:05;9.00;;;4.40;;
69087;SDS011;56190;43.562;5.036;2023-09-08T09:20:31;6.57;;;4.40;;
69087;SDS011;56190;43.562;5.036;2023-09-08T09:22:57;6.32;;;4.40;;
69087;SDS011;56190;43.562;5.036;2023-09-08T09:25:23;6.35;;;4.05;;
69087;SDS011;56190;43.562;5.036;2023-09-08T09:27:55;5.32;;;4.13;;
69087;SDS011;56190;43.562;5.036;2023-09-08T09:30:21;7.15;;;3.90;;
69087;SDS011;56190;43.562;5.036;2023-09-08T09:32:46;7.68;;;4.50;;
69087;SDS011;56190;43.562;5.036;2023-09-08T09:35:14;10.43;;;4.43;;
69087;SDS011;56190;43.562;5.036;2023-09-08T09:37:40;9.45;;;4.47;;
69087;SDS011;56190;43.562;5.036;2023-09-08T09:40:05;6.28;;;4.00;;
69087;SDS011;56190;43.562;5.036;2023-09-08T09:42:32;6.78;;;4.50;;
69087;SDS011;56190;43.562;5.036;2023-09-08T09:44:58;8.93;;;4.47;;
69087;SDS011;56190;43.562;5.036;2023-09-08T09:47:25;12.52;;;4.45;;
69087;SDS011;56190;43.562;5.036;2023-09-08T09:49:50;5.07;;;4.43;;
69087;SDS011;56190;43.562;5.036;2023-09-08T09:52:23;6.40;;;4.38;;
69087;SDS011;56190;43.562;5.036;2023-09-08T09:54:48;5.70;;;4.03;;
69087;SDS011;56190;43.562;5.036;2023-09-08T09:57:16;6.78;;;4.45;;
69087;SDS011;56190;43.562;5.036;2023-09-08T09:59:41;4.43;;;4.00;;
69087;SDS011;56190;43.562;5.036;2023-09-08T10:02:08;7.25;;;4.15;;
69087;SDS011;56190;43.562;5.036;2023-09-08T10:04:36;5.03;;;3.85;;
69087;SDS011;56190;43.562;5.036;2023-09-08T10:07:02;5.00;;;3.97;;
69087;SDS011;56190;43.562;5.036;2023-09-08T10:09:28;5.97;;;4.47;;
69087;SDS011;56190;43.562;5.036;2023-09-08T10:11:54;6.25;;;4.15;;
69087;SDS011;56190;43.562;5.036;2023-09-08T10:14:19;6.85;;;4.05;;
69087;SDS011;56190;43.562;5.036;2023-09-08T10:16:46;4.90;;;4.00;;
69087;SDS011;56190;43.562;5.036;2023-09-08T10:19:14;5.50;;;4.20;;
69087;SDS011;56190;43.562;5.036;2023-09-08T10:21:40;6.15;;;3.88;;
69087;SDS011;56190;43.562;5.036;2023-09-08T10:24:09;5.25;;;4.00;;
69087;SDS011;56190;43.562;5.036;2023-09-08T10:26:37;5.88;;;4.00;;
69087;SDS011;56190;43.562;5.036;2023-09-08T10:29:04;4.65;;;4.10;;
69087;SDS011;56190;43.562;5.036;2023-09-08T10:31:29;6.00;;;3.83;;
69087;SDS011;56190;43.562;5.036;2023-09-08T10:33:55;5.13;;;3.83;;
69087;SDS011;56190;43.562;5.036;2023-09-08T10:36:20;5.53;;;4.03;;
69087;SDS011;56190;43.562;5.036;2023-09-08T10:38:46;5.32;;;4.10;;
69087;SDS011;56190;43.562;5.036;2023-09-08T10:43:44;6.20;;;4.00;;
69087;SDS011;56190;43.562;5.036;2023-09-08T10:46:30;7.07;;;4.07;;
69087;SDS011;56190;43.562;5.036;2023-09-08T10:48:55;6.00;;;3.50;;
69087;SDS011;56190;43.562;5.036;2023-09-08T10:51:25;5.90;;;4.15;;
69087;SDS011;56190;43.562;5.036;2023-09-08T10:53:50;4.93;;;3.97;;
69087;SDS011;56190;43.562;5.036;2023-09-08T10:56:16;5.78;;;4.20;;
69087;SDS011;56190;43.562;5.036;2023-09-08T10:58:43;5.28;;;4.03;;
69087;SDS011;56190;43.562;5.036;2023-09-08T11:01:18;6.05;;;4.00;;
69087;SDS011;56190;43.562;5.036;2023-09-08T11:03:45;6.22;;;4.13;;
69087;SDS011;56190;43.562;5.036;2023-09-08T11:06:12;5.60;;;4.28;;
69087;SDS011;56190;43.562;5.036;2023-09-08T11:08:42;8.30;;;3.90;;
69087;SDS011;56190;43.562;5.036;2023-09-08T11:11:07;6.47;;;4.15;;
69087;SDS011;56190;43.562;5.036;2023-09-08T11:13:33;5.18;;;4.20;;
69087;SDS011;56190;43.562;5.036;2023-09-08T11:15:58;6.90;;;3.95;;
69087;SDS011;56190;43.562;5.036;2023-09-08T11:18:30;7.82;;;3.92;;
69087;SDS011;56190;43.562;5.036;2023-09-08T11:20:56;4.20;;;3.72;;
69087;SDS011;56190;43.562;5.036;2023-09-08T11:23:21;5.57;;;4.00;;
69087;SDS011;56190;43.562;5.036;2023-09-08T11:25:47;6.93;;;4.07;;
69087;SDS011;56190;43.562;5.036;2023-09-08T11:28:12;5.63;;;4.10;;
69087;SDS011;56190;43.562;5.036;2023-09-08T11:30:38;4.65;;;3.72;;
69087;SDS011;56190;43.562;5.036;2023-09-08T11:33:04;5.13;;;4.63;;
69087;SDS011;56190;43.562;5.036;2023-09-08T11:35:31;4.50;;;4.00;;
69087;SDS011;56190;43.562;5.036;2023-09-08T11:38:00;6.85;;;3.75;;
69087;SDS011;56190;43.562;5.036;2023-09-08T11:40:26;5.97;;;3.95;;
69087;SDS011;56190;43.562;5.036;2023-09-08T11:42:53;5.03;;;4.25;;
69087;SDS011;56190;43.562;5.036;2023-09-08T11:45:18;6.13;;;3.90;;
69087;SDS011;56190;43.562;5.036;2023-09-08T11:47:46;5.45;;;4.35;;
69087;SDS011;56190;43.562;5.036;2023-09-08T11:50:12;4.85;;;4.07;;
69087;SDS011;56190;43.562;5.036;2023-09-08T11:52:41;6.28;;;3.92;;
69087;SDS011;56190;43.562;5.036;2023-09-08T11:55:06;6.07;;;3.90;;
69087;SDS011;56190;43.562;5.036;2023-09-08T11:57:32;11.27;;;4.35;;
69087;SDS011;56190;43.562;5.036;2023-09-08T11:59:57;8.10;;;4.43;;
69087;SDS011;56190;43.562;5.036;2023-09-08T12:02:23;4.65;;;3.88;;
69087;SDS011;56190;43.562;5.036;2023-09-08T12:04:48;6.88;;;4.43;;
69087;SDS011;56190;43.562;5.036;2023-09-08T12:07:14;7.15;;;4.00;;
69087;SDS011;56190;43.562;5.036;2023-09-08T12:09:45;6.07;;;4.20;;
69087;SDS011;56190;43.562;5.036;2023-09-08T12:12:13;6.35;;;4.60;;
69087;SDS011;56190;43.562;5.036;2023-09-08T12:14:41;6.72;;;4.20;;
69087;SDS011;56190;43.562;5.036;2023-09-08T12:17:07;4.88;;;4.30;;
69087;SDS011;56190;43.562;5.036;2023-09-08T12:19:32;5.47;;;4.22;;
69087;SDS011;56190;43.562;5.036;2023-09-08T12:22:01;5.82;;;4.30;;
69087;SDS011;56190;43.562;5.036;2023-09-08T12:24:46;8.20;;;4.03;;
69087;SDS011;56190;43.562;5.036;2023-09-08T12:27:12;5.93;;;4.32;;
69087;SDS011;56190;43.562;5.036;2023-09-08T12:29:37;6.03;;;4.38;;
69087;SDS011;56190;43.562;5.036;2023-09-08T12:32:03;7.15;;;4.40;;
69087;SDS011;56190;43.562;5.036;2023-09-08T12:34:28;4.82;;;4.18;;
69087;SDS011;56190;43.562;5.036;2023-09-08T12:36:55;7.28;;;4.13;;
69087;SDS011;56190;43.562;5.036;2023-09-08T12:39:20;7.55;;;4.68;;
69087;SDS011;56190;43.562;5.036;2023-09-08T12:41:45;5.10;;;4.20;;
69087;SDS011;56190;43.562;5.036;2023-09-08T12:44:11;5.13;;;4.37;;
69087;SDS011;56190;43.562;5.036;2023-09-08T12:46:36;8.02;;;4.72;;
69087;SDS011;56190;43.562;5.036;2023-09-08T12:49:01;7.03;;;4.43;;
69087;SDS011;56190;43.562;5.036;2023-09-08T12:51:26;5.03;;;3.87;;
69087;SDS011;56190;43.562;5.036;2023-09-08T12:53:52;5.05;;;4.47;;
69087;SDS011;56190;43.562;5.036;2023-09-08T12:56:17;6.80;;;4.10;;
69087;SDS011;56190;43.562;5.036;2023-09-08T12:58:43;4.70;;;4.03;;
69087;SDS011;56190;43.562;5.036;2023-09-08T13:01:08;6.15;;;4.20;;
69087;SDS011;56190;43.562;5.036;2023-09-08T13:03:33;4.90;;;4.43;;
69087;SDS011;56190;43.562;5.036;2023-09-08T13:05:59;4.93;;;4.17;;
69087;SDS011;56190;43.562;5.036;2023-09-08T13:08:24;9.10;;;4.40;;
69087;SDS011;56190;43.562;5.036;2023-09-08T13:10:49;5.00;;;4.35;;
69087;SDS011;56190;43.562;5.036;2023-09-08T13:13:14;5.57;;;3.80;;
69087;SDS011;56190;43.562;5.036;2023-09-08T13:15:39;5.93;;;4.18;;
69087;SDS011;56190;43.562;5.036;2023-09-08T13:18:05;5.65;;;4.55;;
69087;SDS011;56190;43.562;5.036;2023-09-08T13:20:30;5.40;;;4.70;;
69087;SDS011;56190;43.562;5.036;2023-09-08T13:22:55;6.05;;;4.32;;
69087;SDS011;56190;43.562;5.036;2023-09-08T13:25:21;5.07;;;4.20;;
69087;SDS011;56190;43.562;5.036;2023-09-08T13:27:46;6.15;;;4.40;;
69087;SDS011;56190;43.562;5.036;2023-09-08T13:30:13;6.00;;;4.28;;
69087;SDS011;56190;43.562;5.036;2023-09-08T13:32:39;6.65;;;4.38;;
69087;SDS011;56190;43.562;5.036;2023-09-08T13:35:04;5.15;;;4.35;;
69087;SDS011;56190;43.562;5.036;2023-09-08T13:37:30;5.85;;;4.22;;
69087;SDS011;56190;43.562;5.036;2023-09-08T13:39:56;5.72;;;4.53;;
69087;SDS011;56190;43.562;5.036;2023-09-08T13:42:21;5.70;;;4.22;;
69087;SDS011;56190;43.562;5.036;2023-09-08T13:44:46;5.57;;;4.13;;
69087;SDS011;56190;43.562;5.036;2023-09-08T13:47:11;5.53;;;4.00;;
69087;SDS011;56190;43.562;5.036;2023-09-08T13:49:37;6.18;;;4.20;;
69087;SDS011;56190;43.562;5.036;2023-09-08T13:52:02;6.15;;;4.30;;
69087;SDS011;56190;43.562;5.036;2023-09-08T13:54:27;5.78;;;4.20;;
69087;SDS011;56190;43.562;5.036;2023-09-08T13:56:59;8.02;;;4.10;;
69087;SDS011;56190;43.562;5.036;2023-09-08T13:59:26;5.85;;;4.38;;
69087;SDS011;56190;43.562;5.036;2023-09-08T14:01:51;5.80;;;4.10;;
69087;SDS011;56190;43.562;5.036;2023-09-08T14:04:18;5.55;;;4.32;;
69087;SDS011;56190;43.562;5.036;2023-09-08T14:06:44;7.82;;;4.68;;
69087;SDS011;56190;43.562;5.036;2023-09-08T14:09:09;9.18;;;4.82;;
69087;SDS011;56190;43.562;5.036;2023-09-08T14:11:34;5.03;;;4.40;;
69087;SDS011;56190;43.562;5.036;2023-09-08T14:13:59;5.60;;;4.90;;
69087;SDS011;56190;43.562;5.036;2023-09-08T14:16:24;6.43;;;5.15;;
69087;SDS011;56190;43.562;5.036;2023-09-08T14:18:50;5.72;;;4.47;;
69087;SDS011;56190;43.562;5.036;2023-09-08T14:21:15;7.37;;;4.80;;
69087;SDS011;56190;43.562;5.036;2023-09-08T14:23:40;6.72;;;4.32;;
69087;SDS011;56190;43.562;5.036;2023-09-08T14:26:06;5.95;;;4.82;;
69087;SDS011;56190;43.562;5.036;2023-09-08T14:28:32;6.57;;;5.20;;
69087;SDS011;56190;43.562;5.036;2023-09-08T14:30:57;7.72;;;4.68;;
69087;SDS011;56190;43.562;5.036;2023-09-08T14:33:22;10.95;;;5.00;;
69087;SDS011;56190;43.562;5.036;2023-09-08T14:35:48;5.97;;;4.35;;
69087;SDS011;56190;43.562;5.036;2023-09-08T14:38:16;6.50;;;5.10;;
69087;SDS011;56190;43.562;5.036;2023-09-08T14:40:41;6.82;;;4.60;;
69087;SDS011;56190;43.562;5.036;2023-09-08T14:43:07;5.22;;;4.75;;
69087;SDS011;56190;43.562;5.036;2023-09-08T14:45:32;5.70;;;4.43;;
69087;SDS011;56190;43.562;5.036;2023-09-08T14:47:57;6.93;;;4.63;;
69087;SDS011;56190;43.562;5.036;2023-09-08T14:50:23;5.68;;;4.43;;